»·PEaware :: SKW3114 KSUN-KPHX

SKW3114 :: KSUN-KPHX

FLIGHT INFORMATION

Flight Status: Arrived
Operator:
SkyWest Airlines
More flights by this operator :: More flights under this callsign
Pilot: Jack B. (5846)
Aircraft: CANADAIR CL-600 CRJ-200
(CRJ2)
More flights by this aircraft type
Origin: KSUN Friedman Meml
United States
Destination: KPHX Phoenix Sky Harbor Intl
United States
More flights between these airports :: More routes between these airports
Route: AUREL3 REAPS PROXI Q842 PICHO TENTS BRUSR1
File this flight plan on PilotEdge
Remarks:
Altitude:
(Current/Filed)
320ft
Speed:
(Current/Filed)
320kts
Departed: 25-Oct-19 07:24 PM
Arrived: 25-Oct-19 09:05 PM
Distance/Time
Traveled:
614nm/1:40
Distance/Time
To Go:
Arrived

Flight Plot

Page will automatically refresh every two minutes.

Flight plan parsing failed; only flown route is shown


Map Options




Map Legend


Flown Route
Filed Route
Departure Airport
Arrival Airport
Navaid (VOR, NDB)
Fix

Horizontal Profiles

Position Reports

Time Latitude Longitude Heading Altitude Ground
Speed
25-Oct-19 19:16 43.507181 -114.301241 115 5303ft 0kts
25-Oct-19 19:17 43.507181 -114.301241 115 5303ft 0kts
25-Oct-19 19:18 43.507181 -114.301241 115 5302ft 0kts
25-Oct-19 19:19 43.507181 -114.301241 115 5302ft 0kts
25-Oct-19 19:20 43.507227 -114.301080 51 5303ft 0kts
25-Oct-19 19:21 43.508701 -114.301833 324 5308ft 7kts
25-Oct-19 19:22 43.511827 -114.304271 45 5314ft 8kts
25-Oct-19 19:23 43.505353 -114.297079 145 5295ft 118kts
25-Oct-19 19:24 43.464937 -114.267630 169 6380ft 177kts
25-Oct-19 19:25 43.417711 -114.250518 170 7704ft 185kts
25-Oct-19 19:26 43.364206 -114.231661 170 8510ft 223kts
25-Oct-19 19:27 43.300551 -114.197122 155 9700ft 272kts
25-Oct-19 19:28 43.229203 -114.143283 154 10875ft 313kts
25-Oct-19 19:29 43.154177 -114.079761 139 12683ft 327kts
25-Oct-19 19:30 43.088005 -113.991614 138 14269ft 337kts
25-Oct-19 19:31 43.020278 -113.900559 138 15698ft 347kts
25-Oct-19 19:32 42.950894 -113.806806 139 16953ft 356kts
25-Oct-19 19:33 42.879222 -113.710986 139 18080ft 365kts
25-Oct-19 19:34 42.806005 -113.613464 139 19155ft 372kts
25-Oct-19 19:35 42.731355 -113.514401 139 20138ft 379kts
25-Oct-19 19:36 42.655495 -113.414093 139 21034ft 385kts
25-Oct-19 19:37 42.578373 -113.312480 139 21901ft 391kts
25-Oct-19 19:38 42.499749 -113.209268 139 22733ft 397kts
25-Oct-19 19:39 42.420117 -113.105127 139 23491ft 402kts
25-Oct-19 19:40 42.339276 -112.999820 139 24191ft 407kts
25-Oct-19 19:41 42.257681 -112.893908 139 24835ft 411kts
25-Oct-19 19:42 42.175109 -112.786424 139 25414ft 414kts
25-Oct-19 19:43 42.092041 -112.679358 139 25998ft 415kts
25-Oct-19 19:44 42.008454 -112.572093 139 26587ft 416kts
25-Oct-19 19:45 41.905970 -112.528275 185 27216ft 387kts
25-Oct-19 19:46 41.798999 -112.527890 187 27810ft 384kts
25-Oct-19 19:47 41.692915 -112.528936 187 28348ft 382kts
25-Oct-19 19:48 41.586919 -112.530028 187 28853ft 381kts
25-Oct-19 19:49 41.481565 -112.531112 187 29357ft 378kts
25-Oct-19 19:50 41.380894 -112.532139 188 29822ft 375kts
25-Oct-19 19:51 41.277337 -112.533197 188 30296ft 371kts
25-Oct-19 19:52 41.176539 -112.536842 189 30765ft 364kts
25-Oct-19 19:53 41.078199 -112.540658 190 31230ft 357kts
25-Oct-19 19:54 40.979317 -112.544517 190 31459ft 357kts
25-Oct-19 19:55 40.880168 -112.548377 190 31657ft 357kts
25-Oct-19 19:56 40.781182 -112.552207 190 31860ft 357kts
25-Oct-19 19:57 40.682199 -112.556024 190 32066ft 357kts
25-Oct-19 19:58 40.583133 -112.559842 190 32212ft 359kts
25-Oct-19 19:59 40.482644 -112.563703 190 32217ft 365kts
25-Oct-19 20:00 40.381468 -112.567569 190 32214ft 371kts
25-Oct-19 20:01 40.277818 -112.571519 190 32219ft 376kts
25-Oct-19 20:02 40.172351 -112.575526 190 32224ft 382kts
25-Oct-19 20:03 40.065846 -112.579560 190 32228ft 388kts
25-Oct-19 20:04 39.957284 -112.582785 186 32229ft 397kts
25-Oct-19 20:05 39.846366 -112.579548 186 32210ft 403kts
25-Oct-19 20:06 39.733741 -112.576056 186 32193ft 409kts
25-Oct-19 20:07 39.619371 -112.572515 186 32185ft 415kts
25-Oct-19 20:08 39.503669 -112.568945 186 32186ft 420kts
25-Oct-19 20:09 39.386546 -112.565342 186 32179ft 425kts
25-Oct-19 20:10 39.267765 -112.561701 186 32180ft 429kts
25-Oct-19 20:11 39.148359 -112.558054 186 32182ft 433kts
25-Oct-19 20:12 39.027635 -112.554388 185 32183ft 437kts
25-Oct-19 20:13 38.905777 -112.550793 183 32185ft 442kts
25-Oct-19 20:14 38.782827 -112.546970 182 32212ft 445kts
25-Oct-19 20:15 38.658800 -112.543228 182 32239ft 449kts
25-Oct-19 20:16 38.533514 -112.539466 182 32240ft 453kts
25-Oct-19 20:17 38.408805 -112.535733 182 32234ft 457kts
25-Oct-19 20:18 38.281637 -112.531946 182 32234ft 460kts
25-Oct-19 20:19 38.154036 -112.528151 182 32280ft 461kts
25-Oct-19 20:20 38.025714 -112.524352 182 32344ft 463kts
25-Oct-19 20:21 37.897272 -112.520565 182 32345ft 465kts
25-Oct-19 20:22 37.769415 -112.516808 182 32346ft 468kts
25-Oct-19 20:23 37.639648 -112.513006 182 32347ft 470kts
25-Oct-19 20:24 37.508882 -112.509189 182 32348ft 472kts
25-Oct-19 20:25 37.377952 -112.505381 182 32341ft 473kts
25-Oct-19 20:26 37.246629 -112.501572 182 32342ft 473kts
25-Oct-19 20:27 37.116357 -112.497808 182 32343ft 474kts
25-Oct-19 20:29 36.984694 -112.494064 181 32344ft 475kts
25-Oct-19 20:30 36.852707 -112.490234 181 32345ft 476kts
25-Oct-19 20:31 36.720381 -112.486442 181 32346ft 477kts
25-Oct-19 20:32 36.589688 -112.482723 181 32346ft 478kts
25-Oct-19 20:33 36.456783 -112.478950 181 32339ft 479kts
25-Oct-19 20:34 36.323904 -112.475192 181 32317ft 480kts
25-Oct-19 20:35 36.190830 -112.471437 181 32316ft 480kts
25-Oct-19 20:36 36.057796 -112.467696 181 32317ft 480kts
25-Oct-19 20:37 35.922193 -112.463908 181 31515ft 496kts
25-Oct-19 20:38 35.783763 -112.460044 181 30837ft 503kts
25-Oct-19 20:39 35.643701 -112.456147 180 30160ft 506kts
25-Oct-19 20:40 35.503621 -112.452263 180 29485ft 506kts
25-Oct-19 20:41 35.365554 -112.427021 172 29314ft 500kts
25-Oct-19 20:42 35.228906 -112.400235 172 29315ft 496kts
25-Oct-19 20:43 35.093639 -112.371621 171 29306ft 495kts
25-Oct-19 20:44 34.957506 -112.342234 170 28761ft 504kts
25-Oct-19 20:45 34.821338 -112.312566 168 27184ft 496kts
25-Oct-19 20:46 34.685707 -112.282735 168 25598ft 491kts
25-Oct-19 20:47 34.561142 -112.255444 168 23962ft 420kts
25-Oct-19 20:48 34.452744 -112.231704 167 22350ft 394kts
25-Oct-19 20:49 34.349222 -112.205133 166 20733ft 376kts
25-Oct-19 20:49 34.264455 -112.183202 166 19394ft 371kts
25-Oct-19 20:50 34.165036 -112.157531 166 17788ft 363kts
25-Oct-19 20:52 34.050232 -112.141548 183 15913ft 346kts
25-Oct-19 20:53 33.959856 -112.151365 183 14026ft 318kts
25-Oct-19 20:53 33.887302 -112.161845 188 12442ft 311kts
25-Oct-19 20:55 33.792550 -112.181712 189 10249ft 282kts
25-Oct-19 20:56 33.719037 -112.197221 189 8530ft 259kts
25-Oct-19 20:56 33.661986 -112.209254 189 7228ft 242kts
25-Oct-19 20:58 33.585292 -112.225467 190 6019ft 237kts
25-Oct-19 20:58 33.532038 -112.236911 190 4899ft 233kts
25-Oct-19 20:59 33.467902 -112.246356 159 4401ft 233kts
25-Oct-19 21:00 33.440658 -112.181910 87 3747ft 223kts
25-Oct-19 21:02 33.440831 -112.099388 88 2375ft 186kts
25-Oct-19 21:02 33.440846 -112.053646 88 1592ft 157kts
25-Oct-19 21:03 33.440860 -112.007954 87 1127ft 67kts
25-Oct-19 21:04 33.439700 -111.998715 111 1139ft 17kts
25-Oct-19 21:05 33.438402 -111.992987 184 1134ft 10kts
25-Oct-19 21:06 33.436495 -111.993209 178 1127ft 0kts

Navigation Log

Ident Type
Flight plan parsing failed, navigation log unavailable